Pagrindinis puslapis
METAR-TAF:

METAR-TAF

Oro uostai :

Šantou, Kinija

platuma: 23-24N, ilguma: 116-41E, Aukštis: 3 m

Dabartinis oras

Ataskaita buvo paskelbta 1 valandą ir 1 minutes, ne 14:00 UTC
Vėjas 10 kt iš Šiaurės, svyruoja nuo Šiaurės/Šiaurės Vakarų ir Šiaurės Rytų
Temperatūra 11°C
Drėgmė 62%
Slėgis 1017 hPa
Matomumas 10 km arba daugiau
nėra debesų žemiau 1500 m ir nėra kamuolinių lietaus debesų

METAR: ZGOW 271400Z 01005MPS 340V040 CAVOK 11/04 Q1017 NOSIG

Laikas: 23:01 (15:01 UTC)

Prognozė

Ataskaita buvo paskelbta 5 valandos ir 57 minutes, ne 09:04 UTC
Prognozė galioja nuo 27 metu 12 UTC su 28 metu 12 UTC
Vėjas 8 kt iš Šiaurės/Šiaurės Rytų
Matomumas: 6000 m
Išsisklaidę debesys ne aukštis 4000 ft

TAF: ZGOW 270904Z 2712/2812 02004MPS 6000 SCT040 TX17/2806Z TN09/2722Z

Orai ataskaitas ir orų prognozės (METAR, TAF).

turimą stotys yra geltonos ir raudonos taškus žemėlapyje.

Perkelti pele per norėdami pamatyti stoties vardą.

Tada spustelėkite, norėdami matyti oro stebėjimo ir prognozės.

Norėdami pakeisti žemėlapį: spustelėkite ant žalios mygtukų su juodo kryžiaus žemyn,; žalią mygtuką su brūkšneliu, jei norite nutolinti; arba žalių rodyklių gretimoms žemėlapius.


METAR-TAF: